createdAt,value
2023-05-17T00:01:47.493Z,94509.84
2023-05-17T00:04:13.990Z,94510.91
2023-05-17T00:06:41.107Z,94511.16
2023-05-17T00:09:07.728Z,94514.28
2023-05-17T00:11:34.432Z,94516.88
2023-05-17T00:14:01.165Z,94515.09
2023-05-17T00:16:28.089Z,94520.53
2023-05-17T00:18:54.722Z,94515.34
2023-05-17T00:21:21.441Z,94520.00
2023-05-17T00:23:47.914Z,94524.16
2023-05-17T00:26:14.405Z,94522.09
2023-05-17T00:28:41.794Z,94521.34
2023-05-17T00:31:08.332Z,94491.84
2023-05-17T00:33:34.873Z,94520.00
2023-05-17T00:36:01.410Z,94527.53
2023-05-17T00:38:27.989Z,94525.22
2023-05-17T00:40:54.644Z,94523.66
2023-05-17T00:43:21.165Z,94527.03
2023-05-17T00:45:49.335Z,94520.25
2023-05-17T00:48:16.261Z,94524.19
2023-05-17T00:50:43.176Z,94522.91
2023-05-17T00:53:11.317Z,94528.38
2023-05-17T00:55:37.994Z,94525.03
2023-05-17T00:58:04.547Z,94529.44
2023-05-17T01:00:31.167Z,94522.13
2023-05-17T01:02:57.872Z,94519.28
2023-05-17T01:05:24.498Z,94525.78
2023-05-17T01:07:51.241Z,94523.97
2023-05-17T01:10:17.783Z,94541.09
2023-05-17T01:13:02.471Z,94538.25
2023-05-17T01:15:33.468Z,94538.00
2023-05-17T01:18:28.144Z,94542.66
2023-05-17T01:20:58.504Z,94548.63
2023-05-17T01:23:41.308Z,94550.72
2023-05-17T01:26:13.961Z,94560.56
2023-05-17T01:28:43.735Z,94563.69
2023-05-17T01:31:11.247Z,94567.09
2023-05-17T01:33:38.468Z,94576.16
2023-05-17T01:36:05.668Z,94570.97
2023-05-17T01:38:32.137Z,94580.84
2023-05-17T01:41:08.227Z,94577.75
2023-05-17T01:43:48.109Z,94578.25
2023-05-17T01:46:38.946Z,94580.34
2023-05-17T01:49:08.959Z,94585.53
2023-05-17T01:51:45.272Z,94582.16
2023-05-17T01:54:13.991Z,94585.03
2023-05-17T01:56:47.936Z,94579.06
2023-05-17T01:59:21.656Z,94579.84
2023-05-17T02:01:49.305Z,94573.13
2023-05-17T02:04:15.864Z,94576.22
2023-05-17T02:06:42.627Z,94573.63
2023-05-17T02:09:09.099Z,94583.75
2023-05-17T02:11:36.288Z,94583.75
2023-05-17T02:14:02.760Z,94575.19
2023-05-17T02:16:29.298Z,94580.09
2023-05-17T02:18:56.020Z,94583.22
2023-05-17T02:21:22.603Z,94579.56
2023-05-17T02:23:49.109Z,94579.31
2023-05-17T02:26:18.785Z,94580.13
2023-05-17T02:28:45.369Z,94573.13
2023-05-17T02:31:11.851Z,94578.84
2023-05-17T02:33:38.605Z,94575.22
2023-05-17T02:36:05.402Z,94572.63
2023-05-17T02:38:32.002Z,94581.97
2023-05-17T02:40:58.472Z,94577.31
2023-05-17T02:43:25.216Z,94578.34
2023-05-17T02:45:51.785Z,94581.19
2023-05-17T02:48:18.598Z,94579.41
2023-05-17T02:50:45.398Z,94579.91
2023-05-17T02:53:12.024Z,94580.72
2023-05-17T02:55:38.951Z,94589.28
2023-05-17T02:58:05.633Z,94592.91
2023-05-17T03:00:33.019Z,94586.16
2023-05-17T03:02:59.718Z,94590.06
2023-05-17T03:05:26.481Z,94592.16
2023-05-17T03:07:53.622Z,94592.66
2023-05-17T03:10:20.571Z,94594.72
2023-05-17T03:12:47.822Z,94602.25
2023-05-17T03:15:18.203Z,94600.97
2023-05-17T03:17:45.665Z,94607.94
2023-05-17T03:20:13.097Z,94602.78
2023-05-17T03:22:39.607Z,94605.59
2023-05-17T03:25:06.797Z,94598.09
2023-05-17T03:27:33.709Z,94610.03
2023-05-17T03:30:00.658Z,94603.28
2023-05-17T03:32:28.718Z,94606.38
2023-05-17T03:34:55.379Z,94608.47
2023-05-17T03:37:22.400Z,94608.72
2023-05-17T03:39:48.874Z,94611.06
2023-05-17T03:42:15.524Z,94609.50
2023-05-17T03:44:42.232Z,94607.41
2023-05-17T03:47:08.917Z,94613.09
2023-05-17T03:49:35.376Z,94611.53
2023-05-17T03:52:03.559Z,94621.38
2023-05-17T03:54:30.104Z,94625.28
2023-05-17T03:56:56.620Z,94629.16
2023-05-17T03:59:23.771Z,94629.44
2023-05-17T04:01:50.551Z,94627.34
2023-05-17T04:04:17.105Z,94629.44
2023-05-17T04:06:43.704Z,94627.59
2023-05-17T04:09:11.046Z,94635.38
2023-05-17T04:11:40.455Z,94639.00
2023-05-17T04:14:07.062Z,94637.94
2023-05-17T04:16:33.826Z,94637.44
2023-05-17T04:19:01.090Z,94638.50
2023-05-17T04:21:28.977Z,94636.66
2023-05-17T04:23:56.105Z,94644.94
2023-05-17T04:26:22.783Z,94639.50
2023-05-17T04:28:49.545Z,94642.09
2023-05-17T04:31:17.856Z,94647.00
2023-05-17T04:33:45.142Z,94649.59
2023-05-17T04:36:11.992Z,94647.28
2023-05-17T04:38:39.984Z,94645.44
2023-05-17T04:41:09.457Z,94650.38
2023-05-17T04:43:38.250Z,94654.03
2023-05-17T04:46:08.935Z,94656.34
2023-05-17T04:48:36.000Z,94656.06
2023-05-17T04:51:04.480Z,94662.59
2023-05-17T04:53:31.853Z,94665.44
2023-05-17T04:56:00.674Z,94668.81
2023-05-17T04:58:27.456Z,94664.94
2023-05-17T05:00:57.790Z,94673.50
2023-05-17T05:03:24.412Z,94682.84
2023-05-17T05:05:51.452Z,94675.84
2023-05-17T05:08:18.138Z,94684.66
2023-05-17T05:10:46.341Z,94683.38
2023-05-17T05:13:15.423Z,94686.22
2023-05-17T05:15:42.160Z,94691.69
2023-05-17T05:18:08.935Z,94693.25
2023-05-17T05:20:35.551Z,94693.00
2023-05-17T05:23:05.912Z,94695.59
2023-05-17T05:25:34.657Z,94704.38
2023-05-17T05:28:01.770Z,94694.56
2023-05-17T05:30:29.569Z,94700.25
2023-05-17T05:32:56.715Z,94699.72
2023-05-17T05:35:29.408Z,94713.22
2023-05-17T05:37:57.993Z,94705.94
2023-05-17T05:40:24.871Z,94704.41
2023-05-17T05:42:52.347Z,94704.41
2023-05-17T05:45:21.617Z,94704.91
2023-05-17T05:47:49.648Z,94711.91
2023-05-17T05:50:16.387Z,94710.09
2023-05-17T05:52:44.633Z,94720.47
2023-05-17T05:55:11.305Z,94720.47
2023-05-17T05:57:37.821Z,94720.25
2023-05-17T06:00:05.857Z,94726.47
2023-05-17T06:02:39.365Z,94720.53
2023-05-17T06:05:06.146Z,94731.91
2023-05-17T06:07:35.564Z,94730.38
2023-05-17T06:10:02.086Z,94725.97
2023-05-17T06:12:28.575Z,94741.53
2023-05-17T06:14:55.110Z,94739.69
2023-05-17T06:17:21.627Z,94725.13
2023-05-17T06:19:49.311Z,94733.38
2023-05-17T06:22:16.200Z,94744.81
2023-05-17T06:24:42.737Z,94738.03
2023-05-17T06:27:09.318Z,94743.97
2023-05-17T06:29:36.281Z,94741.09
2023-05-17T06:32:02.837Z,94750.94
2023-05-17T06:34:29.320Z,94743.69
2023-05-17T06:36:55.928Z,94737.38
2023-05-17T06:39:22.461Z,94732.63
2023-05-17T06:41:48.947Z,94739.56
2023-05-17T06:44:17.463Z,94744.97
2023-05-17T06:46:43.905Z,94740.00
2023-05-17T06:49:10.426Z,94741.28
2023-05-17T06:51:36.892Z,94747.44
2023-05-17T06:54:03.456Z,94737.78
2023-05-17T06:56:30.109Z,94742.41
2023-05-17T06:58:56.690Z,94746.78
2023-05-17T07:01:23.128Z,94747.53
2023-05-17T07:03:49.874Z,94743.59
2023-05-17T07:06:16.381Z,94743.88
2023-05-17T07:08:42.889Z,94739.13
2023-05-17T07:11:09.338Z,94745.72
2023-05-17T07:13:36.056Z,94742.13
2023-05-17T07:16:02.577Z,94750.84
2023-05-17T07:18:29.137Z,94747.31
2023-05-17T07:20:55.815Z,94751.81
2023-05-17T07:23:22.268Z,94749.81
2023-05-17T07:25:48.737Z,94752.13
2023-05-17T07:28:15.234Z,94749.88
2023-05-17T07:30:41.696Z,94751.53
2023-05-17T07:33:08.211Z,94752.78
2023-05-17T07:35:34.717Z,94752.88
2023-05-17T07:38:01.189Z,94762.09
2023-05-17T07:40:27.743Z,94756.09
2023-05-17T07:42:54.191Z,94751.91
2023-05-17T07:45:20.858Z,94758.59
2023-05-17T07:47:47.358Z,94759.94
2023-05-17T07:50:13.967Z,94763.91
2023-05-17T07:52:40.450Z,94764.41
2023-05-17T07:55:07.837Z,94752.63
2023-05-17T07:57:36.853Z,94759.28
2023-05-17T08:00:04.358Z,94761.78
2023-05-17T08:02:38.618Z,94757.94
2023-05-17T08:05:05.443Z,94767.06
2023-05-17T08:07:31.908Z,94765.78
2023-05-17T08:09:58.367Z,94766.75
2023-05-17T08:12:25.399Z,94761.09
2023-05-17T08:14:51.884Z,94779.94
2023-05-17T08:17:18.354Z,94783.47
2023-05-17T08:19:44.900Z,94775.72
2023-05-17T08:22:11.498Z,94773.88
2023-05-17T08:24:37.960Z,94770.94
2023-05-17T08:27:05.971Z,94772.59
2023-05-17T08:29:32.416Z,94780.34
2023-05-17T08:31:58.938Z,94772.22
2023-05-17T08:34:25.673Z,94775.47
2023-05-17T08:36:53.539Z,94770.00
2023-05-17T08:39:21.118Z,94776.44
2023-05-17T08:41:48.422Z,94781.06
2023-05-17T08:44:16.921Z,94781.66
2023-05-17T08:46:44.378Z,94780.19
2023-05-17T08:49:15.825Z,94777.56
2023-05-17T08:51:43.687Z,94776.88
2023-05-17T08:54:10.247Z,94776.41
2023-05-17T08:56:39.369Z,94776.44
2023-05-17T08:59:08.447Z,94775.84
2023-05-17T09:01:35.088Z,94775.06
2023-05-17T09:04:01.665Z,94780.88
2023-05-17T09:06:30.052Z,94779.91
2023-05-17T09:08:58.484Z,94770.59
2023-05-17T09:11:27.837Z,94773.31
2023-05-17T09:13:58.769Z,94776.19
2023-05-17T09:16:28.357Z,94774.31
2023-05-17T09:18:56.239Z,94757.66
2023-05-17T09:21:23.951Z,94768.09
2023-05-17T09:24:05.626Z,94769.00
2023-05-17T09:26:45.691Z,94774.44
2023-05-17T09:29:14.081Z,94777.69
2023-05-17T09:31:41.373Z,94776.78
2023-05-17T09:34:08.146Z,94788.84
2023-05-17T09:36:39.140Z,94790.19
2023-05-17T09:39:10.665Z,94788.03
2023-05-17T09:41:46.677Z,94783.00
2023-05-17T09:44:14.564Z,94780.28
2023-05-17T09:46:48.770Z,94790.66
2023-05-17T09:49:16.733Z,94785.50
2023-05-17T09:51:45.395Z,94788.03
2023-05-17T09:54:11.967Z,94781.41
2023-05-17T09:56:39.095Z,94783.47
2023-05-17T09:59:12.375Z,94790.16
2023-05-17T10:01:41.223Z,94792.22
2023-05-17T10:04:12.207Z,94794.47
2023-05-17T10:06:49.735Z,94798.47
2023-05-17T10:09:21.640Z,94799.38
2023-05-17T10:11:48.478Z,94797.16
2023-05-17T10:14:23.556Z,94795.84
2023-05-17T10:16:51.689Z,94789.22
2023-05-17T10:19:20.284Z,94792.53
2023-05-17T10:21:51.810Z,94780.53
2023-05-17T10:24:20.610Z,94782.56
2023-05-17T10:26:50.009Z,94785.88
2023-05-17T10:29:16.886Z,94783.28
2023-05-17T10:31:43.713Z,94790.91
2023-05-17T10:34:11.976Z,94778.81
2023-05-17T10:36:39.271Z,94785.13
2023-05-17T10:39:08.011Z,94789.94
2023-05-17T10:41:36.151Z,94775.88
2023-05-17T10:44:05.354Z,94789.28
2023-05-17T10:46:32.303Z,94795.25
2023-05-17T10:49:00.549Z,94795.13
2023-05-17T10:51:34.058Z,94788.88
2023-05-17T10:54:05.002Z,94797.34
2023-05-17T10:56:32.179Z,94785.59
2023-05-17T10:59:19.908Z,94782.56
2023-05-17T11:02:03.388Z,94784.91
2023-05-17T11:04:38.391Z,94772.91
2023-05-17T11:07:17.361Z,94782.41
2023-05-17T11:09:45.069Z,94765.25
2023-05-17T11:12:13.874Z,94773.81
2023-05-17T11:14:46.140Z,94767.75
2023-05-17T11:17:17.966Z,94766.03
2023-05-17T11:20:13.205Z,94764.19
2023-05-17T11:22:55.490Z,94759.31
2023-05-17T11:25:22.165Z,94771.78
2023-05-17T11:27:51.562Z,94772.63
2023-05-17T11:30:22.038Z,94769.06
2023-05-17T11:32:54.125Z,94758.47
2023-05-17T11:35:24.737Z,94760.22
2023-05-17T11:38:11.733Z,94762.63
2023-05-17T11:40:38.787Z,94747.00
2023-05-17T11:43:19.434Z,94760.75
2023-05-17T11:45:53.089Z,94757.66
2023-05-17T11:48:22.268Z,94753.47
2023-05-17T11:50:51.122Z,94747.75
2023-05-17T11:53:18.086Z,94752.88
2023-05-17T11:55:50.281Z,94744.50
2023-05-17T11:58:19.012Z,94753.75
2023-05-17T12:00:45.862Z,94751.97
2023-05-17T12:03:22.578Z,94746.66
2023-05-17T12:05:52.097Z,94759.19
2023-05-17T12:08:20.367Z,94752.72
2023-05-17T12:10:52.460Z,94756.28
2023-05-17T12:13:20.901Z,94750.25
2023-05-17T12:16:02.597Z,94748.53
2023-05-17T12:18:40.467Z,94744.81
2023-05-17T12:21:09.255Z,94748.25
2023-05-17T12:23:38.194Z,94742.97
2023-05-17T12:26:16.130Z,94748.50
2023-05-17T12:28:52.732Z,94752.16
2023-05-17T12:31:24.846Z,94748.38
2023-05-17T12:33:51.608Z,94745.94
2023-05-17T12:36:18.928Z,94747.41
2023-05-17T12:38:47.138Z,94747.75
2023-05-17T12:41:15.703Z,94760.75
2023-05-17T12:43:44.642Z,94749.94
2023-05-17T12:46:19.295Z,94762.59
2023-05-17T12:48:46.990Z,94759.81
2023-05-17T12:51:15.509Z,94751.66
2023-05-17T12:53:44.240Z,94755.81
2023-05-17T12:56:23.149Z,94756.28
2023-05-17T12:59:14.226Z,94757.00
2023-05-17T13:01:51.752Z,94754.38
2023-05-17T13:04:19.683Z,94765.00
2023-05-17T13:06:54.894Z,94751.25
2023-05-17T13:09:23.940Z,94757.31
2023-05-17T13:11:55.329Z,94763.78
2023-05-17T13:14:41.217Z,94763.50
2023-05-17T13:17:12.002Z,94758.03
2023-05-17T13:19:39.631Z,94758.97
2023-05-17T13:22:06.662Z,94757.81
2023-05-17T13:24:38.095Z,94765.00
2023-05-17T13:27:06.020Z,94767.03
2023-05-17T13:29:39.342Z,94776.25
2023-05-17T13:32:07.959Z,94771.97
2023-05-17T13:34:34.643Z,94768.03
2023-05-17T13:37:01.757Z,94770.00
2023-05-17T13:39:28.243Z,94768.00
2023-05-17T13:41:54.721Z,94771.34
2023-05-17T13:44:21.348Z,94768.09
2023-05-17T13:46:47.878Z,94778.22
2023-05-17T13:49:14.698Z,94769.75
2023-05-17T13:51:41.628Z,94779.06
2023-05-17T13:54:08.140Z,94775.34
2023-05-17T13:56:34.853Z,94773.28
2023-05-17T13:59:01.571Z,94783.03
2023-05-17T14:01:28.032Z,94779.94
2023-05-17T14:03:55.332Z,94780.53
2023-05-17T14:06:22.083Z,94787.72
2023-05-17T14:08:49.556Z,94780.09
2023-05-17T14:11:16.101Z,94778.88
2023-05-17T14:13:42.941Z,94774.81
2023-05-17T14:16:09.455Z,94773.16
2023-05-17T14:18:36.191Z,94779.09
2023-05-17T14:21:03.518Z,94778.63
2023-05-17T14:23:30.137Z,94784.28
2023-05-17T14:25:57.711Z,94786.88
2023-05-17T14:28:24.474Z,94780.38
2023-05-17T14:30:51.829Z,94784.00
2023-05-17T14:33:18.621Z,94791.91
2023-05-17T14:35:45.239Z,94782.09
2023-05-17T14:38:11.797Z,94794.84
2023-05-17T14:40:38.319Z,94796.03
2023-05-17T14:43:05.050Z,94789.94
2023-05-17T14:45:31.833Z,94793.16
2023-05-17T14:47:58.455Z,94789.72
2023-05-17T14:50:25.025Z,94794.47
2023-05-17T14:52:51.527Z,94791.22
2023-05-17T14:55:18.712Z,94787.56
2023-05-17T14:57:45.856Z,94788.91
2023-05-17T15:00:13.673Z,94786.34
2023-05-17T15:02:40.284Z,94791.44
2023-05-17T15:05:07.303Z,94799.91
2023-05-17T15:07:34.332Z,94792.59
2023-05-17T15:10:01.391Z,94770.25
2023-05-17T15:12:28.305Z,94779.16
2023-05-17T15:14:54.781Z,94796.69
2023-05-17T15:17:22.052Z,94779.41
2023-05-17T15:19:48.916Z,94776.75
2023-05-17T15:22:15.884Z,94789.13
2023-05-17T15:24:42.459Z,94789.16
2023-05-17T15:27:12.544Z,94794.13
2023-05-17T15:29:40.839Z,94791.34
2023-05-17T15:32:07.511Z,94800.63
2023-05-17T15:34:34.154Z,94788.25
2023-05-17T15:37:01.101Z,94779.63
2023-05-17T15:39:28.070Z,94789.34
2023-05-17T15:41:54.526Z,94795.09
2023-05-17T15:44:23.748Z,94803.88
2023-05-17T15:46:50.833Z,94802.97
2023-05-17T15:49:17.376Z,94806.19
2023-05-17T15:51:43.896Z,94805.31
2023-05-17T15:54:10.382Z,94800.16
2023-05-17T15:56:38.311Z,94800.91
2023-05-17T15:59:05.641Z,94802.56
2023-05-17T16:01:32.148Z,94804.53
2023-05-17T16:03:58.645Z,94807.44
2023-05-17T16:06:25.287Z,94808.72
2023-05-17T16:08:51.843Z,94800.22
2023-05-17T16:11:18.362Z,94807.06
2023-05-17T16:13:44.847Z,94809.28
2023-05-17T16:16:13.352Z,94787.00
2023-05-17T16:18:40.005Z,94801.13
2023-05-17T16:21:06.708Z,94798.66
2023-05-17T16:23:33.358Z,94808.88
2023-05-17T16:26:00.001Z,94786.59
2023-05-17T16:28:26.526Z,94803.66
2023-05-17T16:30:53.145Z,94795.56
2023-05-17T16:33:20.607Z,94803.75
2023-05-17T16:35:48.846Z,94817.31
2023-05-17T16:38:16.582Z,94806.41
2023-05-17T16:40:43.149Z,94811.47
2023-05-17T16:43:09.975Z,94811.06
2023-05-17T16:45:36.553Z,94812.22
2023-05-17T16:48:03.218Z,94814.50
2023-05-17T16:50:30.009Z,94811.50
2023-05-17T16:52:56.801Z,94803.50
2023-05-17T16:55:23.369Z,94809.59
2023-05-17T16:57:49.909Z,94814.06
2023-05-17T17:00:16.844Z,94813.44
2023-05-17T17:02:43.361Z,94814.69
2023-05-17T17:05:10.352Z,94822.41
2023-05-17T17:07:36.811Z,94816.34
2023-05-17T17:10:03.414Z,94819.25
2023-05-17T17:12:30.077Z,94831.00
2023-05-17T17:14:56.557Z,94823.50
2023-05-17T17:17:22.983Z,94812.47
2023-05-17T17:19:49.473Z,94807.41
2023-05-17T17:22:16.646Z,94812.38
2023-05-17T17:24:44.400Z,94824.88
2023-05-17T17:27:10.935Z,94827.97
2023-05-17T17:29:37.452Z,94818.56
2023-05-17T17:32:05.041Z,94822.63
2023-05-17T17:34:31.660Z,94825.84
2023-05-17T17:36:58.140Z,94828.34
2023-05-17T17:39:25.869Z,94824.97
2023-05-17T17:41:52.330Z,94832.34
2023-05-17T17:44:19.556Z,94828.91
2023-05-17T17:46:46.110Z,94830.84
2023-05-17T17:49:12.635Z,94826.63
2023-05-17T17:51:39.098Z,94828.91
2023-05-17T17:54:07.262Z,94828.50
2023-05-17T17:56:33.910Z,94848.50
2023-05-17T17:59:00.340Z,94839.06
2023-05-17T18:01:27.464Z,94842.41
2023-05-17T18:03:54.096Z,94841.91
2023-05-17T18:06:21.169Z,94850.38
2023-05-17T18:08:47.643Z,94852.59
2023-05-17T18:11:14.218Z,94841.81
2023-05-17T18:13:40.771Z,94848.41
2023-05-17T18:16:07.346Z,94849.72
2023-05-17T18:18:34.060Z,94834.94
2023-05-17T18:21:00.631Z,94844.84
2023-05-17T18:23:27.163Z,94846.16
2023-05-17T18:25:53.603Z,94854.69
2023-05-17T18:28:29.989Z,94847.81
2023-05-17T18:31:06.742Z,94853.41
2023-05-17T18:33:34.196Z,94854.09
2023-05-17T18:36:00.867Z,94852.66
2023-05-17T18:38:27.371Z,94854.88
2023-05-17T18:40:53.779Z,94846.16
2023-05-17T18:43:20.472Z,94862.56
2023-05-17T18:45:46.946Z,94851.97
2023-05-17T18:48:13.411Z,94856.19
2023-05-17T18:50:39.939Z,94861.50
2023-05-17T18:53:06.618Z,94865.72
2023-05-17T18:55:33.157Z,94852.28
2023-05-17T18:57:59.723Z,94862.69
2023-05-17T19:00:26.348Z,94861.19
2023-05-17T19:02:53.207Z,94863.84
2023-05-17T19:05:19.739Z,94866.78
2023-05-17T19:07:46.187Z,94872.81
2023-05-17T19:10:12.637Z,94871.28
2023-05-17T19:12:39.244Z,94870.81
2023-05-17T19:15:06.166Z,94872.69
2023-05-17T19:17:32.735Z,94874.06
2023-05-17T19:19:59.275Z,94873.06
2023-05-17T19:22:25.935Z,94873.38
2023-05-17T19:24:52.497Z,94882.00
2023-05-17T19:27:19.699Z,94876.03
2023-05-17T19:29:47.086Z,94875.03
2023-05-17T19:32:13.692Z,94880.03
2023-05-17T19:34:40.416Z,94875.34
2023-05-17T19:37:07.198Z,94875.94
2023-05-17T19:39:33.690Z,94877.50
2023-05-17T19:42:00.172Z,94882.19
2023-05-17T19:44:26.756Z,94880.38
2023-05-17T19:46:53.540Z,94892.63
2023-05-17T19:49:20.190Z,94879.13
2023-05-17T19:51:48.124Z,94887.44
2023-05-17T19:54:14.699Z,94886.41
2023-05-17T19:56:41.444Z,94881.75
2023-05-17T19:59:08.022Z,94881.25
2023-05-17T20:01:34.685Z,94878.63
2023-05-17T20:04:01.395Z,94874.75
2023-05-17T20:06:27.955Z,94876.31
2023-05-17T20:08:54.410Z,94875.81
2023-05-17T20:11:21.603Z,94871.41
2023-05-17T20:13:48.076Z,94875.28
2023-05-17T20:16:14.800Z,94877.13
2023-05-17T20:18:45.124Z,94881.06
2023-05-17T20:21:15.081Z,94884.97
2023-05-17T20:23:41.716Z,94885.25
2023-05-17T20:26:08.211Z,94885.47
2023-05-17T20:28:34.683Z,94876.38
2023-05-17T20:31:01.230Z,94879.28
2023-05-17T20:33:27.828Z,94878.22
2023-05-17T20:35:54.378Z,94876.16
2023-05-17T20:38:21.734Z,94876.91
2023-05-17T20:40:48.498Z,94879.78
2023-05-17T20:43:16.750Z,94888.63
2023-05-17T20:45:43.626Z,94880.31
2023-05-17T20:48:10.276Z,94885.78
2023-05-17T20:50:37.109Z,94883.44
2023-05-17T20:53:03.692Z,94888.13
2023-05-17T20:55:30.486Z,94893.34
2023-05-17T20:57:57.052Z,94891.78
2023-05-17T21:00:24.721Z,94888.16
2023-05-17T21:02:51.394Z,94882.72
2023-05-17T21:05:18.116Z,94888.16
2023-05-17T21:07:47.741Z,94885.84
2023-05-17T21:10:14.239Z,94894.41
2023-05-17T21:12:40.736Z,94885.09
2023-05-17T21:15:15.989Z,94885.59
2023-05-17T21:17:43.487Z,94879.34
2023-05-17T21:20:10.755Z,94885.06
2023-05-17T21:22:37.630Z,94888.72
2023-05-17T21:25:04.731Z,94886.66
2023-05-17T21:27:31.383Z,94880.41
2023-05-17T21:29:57.901Z,94881.69
2023-05-17T21:32:24.383Z,94881.44
2023-05-17T21:34:53.719Z,94884.31
2023-05-17T21:37:21.175Z,94880.13
2023-05-17T21:39:47.664Z,94879.38
2023-05-17T21:42:14.247Z,94877.03
2023-05-17T21:44:40.843Z,94870.53
2023-05-17T21:47:07.469Z,94870.03
2023-05-17T21:49:34.168Z,94860.41
2023-05-17T21:52:00.785Z,94863.28
2023-05-17T21:54:27.357Z,94863.78
2023-05-17T21:56:54.016Z,94865.09
2023-05-17T21:59:20.565Z,94861.44
2023-05-17T22:01:47.290Z,94867.94
2023-05-17T22:04:13.834Z,94870.78
2023-05-17T22:06:40.345Z,94875.72
2023-05-17T22:09:07.069Z,94872.59
2023-05-17T22:11:38.166Z,94861.16
2023-05-17T22:14:08.285Z,94871.03
2023-05-17T22:16:36.068Z,94873.34
2023-05-17T22:19:03.889Z,94871.03
2023-05-17T22:21:31.889Z,94873.34
2023-05-17T22:23:59.056Z,94863.75
2023-05-17T22:26:25.721Z,94865.84
2023-05-17T22:28:52.399Z,94873.59
2023-05-17T22:31:19.723Z,94866.28
2023-05-17T22:33:46.719Z,94870.44
2023-05-17T22:36:14.089Z,94861.34
2023-05-17T22:38:42.650Z,94851.44
2023-05-17T22:41:10.589Z,94848.81
2023-05-17T22:43:37.570Z,94854.78
2023-05-17T22:46:04.369Z,94859.19
2023-05-17T22:48:32.011Z,94858.91
2023-05-17T22:51:00.875Z,94854.47
2023-05-17T22:53:31.082Z,94858.09
2023-05-17T22:55:57.563Z,94855.22
2023-05-17T22:58:24.062Z,94849.50
2023-05-17T23:00:51.290Z,94854.16
2023-05-17T23:03:19.157Z,94852.88
2023-05-17T23:05:45.921Z,94851.56
2023-05-17T23:08:15.274Z,94845.81
2023-05-17T23:10:45.423Z,94847.63
2023-05-17T23:13:12.710Z,94845.78
2023-05-17T23:15:40.858Z,94850.44
2023-05-17T23:18:07.608Z,94846.25
2023-05-17T23:20:34.966Z,94848.06
2023-05-17T23:23:01.728Z,94837.69
2023-05-17T23:25:29.014Z,94844.19
2023-05-17T23:27:58.126Z,94838.47
2023-05-17T23:30:26.123Z,94841.34
2023-05-17T23:32:55.707Z,94845.75
2023-05-17T23:35:25.117Z,94851.16
2023-05-17T23:37:51.760Z,94835.88
2023-05-17T23:40:18.284Z,94845.44
2023-05-17T23:42:44.852Z,94838.44
2023-05-17T23:45:11.404Z,94838.88
2023-05-17T23:47:40.698Z,94827.97
2023-05-17T23:50:11.849Z,94830.75
2023-05-17T23:52:39.152Z,94826.59
2023-05-17T23:55:08.922Z,94827.09
2023-05-17T23:57:35.558Z,94822.41
